createdAt,value
2023-05-15T00:04:17.298Z,3.90
2023-05-15T00:09:22.916Z,4.13
2023-05-15T00:14:27.947Z,4.60
2023-05-15T00:19:31.398Z,3.97
2023-05-15T00:24:36.259Z,4.20
2023-05-15T00:29:41.214Z,3.20
2023-05-15T00:34:44.504Z,4.47
2023-05-15T00:39:50.480Z,4.55
2023-05-15T00:44:57.765Z,4.05
2023-05-15T00:50:02.606Z,3.63
2023-05-15T00:55:10.112Z,4.72
2023-05-15T01:00:18.594Z,4.18
2023-05-15T01:05:22.265Z,3.50
2023-05-15T01:10:28.200Z,3.30
2023-05-15T01:15:33.490Z,3.80
2023-05-15T01:21:02.475Z,3.47
2023-05-15T01:26:32.421Z,4.47
2023-05-15T01:31:42.150Z,4.90
2023-05-15T01:36:49.499Z,4.78
2023-05-15T01:42:04.204Z,5.15
2023-05-15T01:47:14.123Z,4.60
2023-05-15T01:52:25.529Z,4.72
2023-05-15T01:57:31.130Z,4.80
2023-05-15T02:02:43.690Z,4.05
2023-05-15T02:07:48.288Z,4.50
2023-05-15T02:12:53.151Z,5.03
2023-05-15T02:17:57.981Z,4.68
2023-05-15T02:23:03.782Z,4.75
2023-05-15T02:28:10.914Z,4.20
2023-05-15T02:33:25.197Z,4.63
2023-05-15T02:38:35.722Z,5.35
2023-05-15T02:43:41.024Z,5.07
2023-05-15T02:48:46.072Z,4.88
2023-05-15T02:53:52.022Z,4.75
2023-05-15T02:58:56.984Z,4.18
2023-05-15T03:04:06.134Z,4.22
2023-05-15T03:09:16.779Z,3.85
2023-05-15T03:14:22.148Z,4.63
2023-05-15T03:19:34.162Z,4.43
2023-05-15T03:24:37.762Z,4.32
2023-05-15T03:29:41.265Z,4.03
2023-05-15T03:34:47.136Z,4.13
2023-05-15T03:39:52.406Z,4.43
2023-05-15T03:44:56.338Z,3.83
2023-05-15T03:50:10.895Z,4.45
2023-05-15T03:55:23.473Z,4.75
2023-05-15T04:00:27.248Z,4.53
2023-05-15T04:05:32.214Z,4.75
2023-05-15T04:10:36.567Z,4.78
2023-05-15T04:15:46.900Z,5.05
2023-05-15T04:20:52.727Z,5.20
2023-05-15T04:25:57.137Z,4.90
2023-05-15T04:31:04.858Z,4.13
2023-05-15T04:36:11.664Z,3.90
2023-05-15T04:41:15.032Z,5.10
2023-05-15T04:46:18.352Z,4.28
2023-05-15T04:51:23.293Z,4.45
2023-05-15T04:56:26.791Z,4.18
2023-05-15T05:01:31.522Z,4.28
2023-05-15T05:06:43.911Z,3.30
2023-05-15T05:11:48.961Z,3.75
2023-05-15T05:16:55.476Z,3.40
2023-05-15T05:22:05.228Z,3.30
2023-05-15T05:27:08.933Z,2.90
2023-05-15T05:32:15.894Z,2.80
2023-05-15T05:37:22.540Z,3.03
2023-05-15T05:42:26.691Z,2.58
2023-05-15T05:47:31.966Z,2.53
2023-05-15T05:52:37.814Z,2.78
2023-05-15T05:57:41.221Z,2.63
2023-05-15T06:02:44.993Z,2.42
2023-05-15T06:07:49.809Z,2.40
2023-05-15T06:12:53.169Z,2.65
2023-05-15T06:17:56.680Z,2.63
2023-05-15T06:23:02.271Z,2.53
2023-05-15T06:28:08.815Z,2.42
2023-05-15T06:33:12.325Z,2.30
2023-05-15T06:38:20.565Z,2.22
2023-05-15T06:43:23.948Z,2.20
2023-05-15T06:48:28.883Z,2.40
2023-05-15T06:53:37.585Z,1.88
2023-05-15T06:58:41.127Z,2.20
2023-05-15T07:03:44.638Z,2.40
2023-05-15T07:08:55.411Z,1.85
2023-05-15T07:13:58.810Z,1.90
2023-05-15T07:19:02.368Z,2.55
2023-05-15T07:24:07.778Z,2.60
2023-05-15T07:29:14.315Z,3.03
2023-05-15T07:34:17.676Z,3.20
2023-05-15T07:39:22.559Z,2.75
2023-05-15T07:49:53.430Z,3.17
2023-05-15T07:54:59.775Z,3.13
2023-05-15T08:00:16.686Z,2.58
2023-05-15T08:05:21.458Z,3.03
2023-05-15T08:10:26.272Z,3.13
2023-05-15T08:15:29.947Z,2.70
2023-05-15T08:20:33.272Z,2.55
2023-05-15T08:25:39.703Z,2.70
2023-05-15T08:30:49.389Z,1.92
2023-05-15T08:35:55.432Z,2.30
2023-05-15T08:41:07.572Z,2.60
2023-05-15T08:46:12.889Z,2.50
2023-05-15T08:51:16.889Z,2.17
2023-05-15T08:56:22.163Z,2.40
2023-05-15T09:01:26.265Z,2.60
2023-05-15T09:06:35.275Z,2.50
2023-05-15T09:11:42.956Z,2.47
2023-05-15T09:16:49.391Z,2.60
2023-05-15T09:21:52.751Z,2.58
2023-05-15T09:27:05.560Z,2.80
2023-05-15T09:32:10.901Z,2.30
2023-05-15T09:37:29.775Z,2.67
2023-05-15T09:42:41.706Z,2.50
2023-05-15T09:47:50.593Z,3.38
2023-05-15T09:52:57.463Z,4.93
2023-05-15T09:58:13.837Z,2.92
2023-05-15T10:03:18.360Z,2.53
2023-05-15T10:08:28.589Z,2.50
2023-05-15T10:13:37.481Z,2.22
2023-05-15T10:18:44.100Z,3.03
2023-05-15T10:23:48.990Z,2.70
2023-05-15T10:29:02.303Z,2.80
2023-05-15T10:34:06.797Z,2.15
2023-05-15T10:39:13.316Z,2.13
2023-05-15T10:44:21.672Z,3.60
2023-05-15T10:49:28.031Z,2.15
2023-05-15T10:54:35.436Z,1.45
2023-05-15T10:59:41.990Z,1.33
2023-05-15T11:04:48.152Z,1.85
2023-05-15T11:09:52.315Z,1.50
2023-05-15T11:15:24.115Z,1.35
2023-05-15T11:20:36.477Z,1.65
2023-05-15T11:25:41.751Z,1.67
2023-05-15T11:30:52.944Z,1.85
2023-05-15T11:36:04.099Z,1.48
2023-05-15T11:41:22.138Z,1.33
2023-05-15T11:46:27.438Z,1.70
2023-05-15T11:51:34.414Z,1.42
2023-05-15T11:56:44.670Z,1.70
2023-05-15T12:01:54.335Z,1.90
2023-05-15T12:07:03.227Z,1.73
2023-05-15T12:12:15.237Z,1.63
2023-05-15T12:17:19.936Z,1.40
2023-05-15T12:22:25.239Z,1.65
2023-05-15T12:27:29.298Z,1.50
2023-05-15T12:32:37.025Z,1.50
2023-05-15T12:37:42.941Z,1.58
2023-05-15T12:42:54.754Z,2.10
2023-05-15T12:48:01.115Z,1.60
2023-05-15T12:53:06.583Z,2.22
2023-05-15T12:58:14.456Z,1.67
2023-05-15T13:03:22.136Z,1.77
2023-05-15T13:08:29.084Z,1.30
2023-05-15T13:13:45.403Z,1.45
2023-05-15T13:18:50.628Z,1.45
2023-05-15T13:24:14.745Z,1.30
2023-05-15T13:29:18.135Z,1.40
2023-05-15T13:34:24.108Z,1.60
2023-05-15T13:39:29.477Z,1.65
2023-05-15T13:44:37.651Z,2.20
2023-05-15T13:49:44.943Z,1.98
2023-05-15T13:54:55.041Z,1.60
2023-05-15T13:59:59.547Z,1.70
2023-05-15T14:05:05.409Z,1.75
2023-05-15T14:10:09.707Z,1.73
2023-05-15T14:15:22.036Z,1.60
2023-05-15T14:20:32.694Z,1.45
2023-05-15T14:25:41.049Z,1.63
2023-05-15T14:30:46.860Z,1.30
2023-05-15T14:35:54.836Z,1.40
2023-05-15T14:40:58.288Z,0.98
2023-05-15T14:46:03.668Z,1.27
2023-05-15T14:51:08.960Z,1.83
2023-05-15T14:56:12.747Z,1.27
2023-05-15T15:01:22.170Z,1.10
2023-05-15T15:06:28.951Z,1.17
2023-05-15T15:11:34.450Z,0.90
2023-05-15T15:16:40.032Z,1.02
2023-05-15T15:22:18.957Z,0.80
2023-05-15T15:27:24.502Z,1.33
2023-05-15T15:32:30.574Z,0.85
2023-05-15T15:37:39.543Z,1.27
2023-05-15T15:42:52.128Z,0.95
2023-05-15T15:48:04.985Z,0.80
2023-05-15T15:53:12.472Z,1.30
2023-05-15T15:58:21.960Z,1.10
2023-05-15T16:03:26.634Z,1.50
2023-05-15T16:08:40.372Z,1.40
2023-05-15T16:13:44.574Z,1.23
2023-05-15T16:18:49.286Z,1.60
2023-05-15T16:23:54.190Z,1.75
2023-05-15T16:29:14.439Z,2.58
2023-05-15T16:34:20.282Z,1.52
2023-05-15T16:39:26.292Z,2.03
2023-05-15T16:44:32.557Z,1.85
2023-05-15T16:49:36.330Z,2.35
2023-05-15T16:54:53.570Z,2.60
2023-05-15T17:00:04.819Z,3.05
2023-05-15T17:05:10.767Z,3.40
2023-05-15T17:10:17.671Z,4.53
2023-05-15T17:15:25.844Z,3.22
2023-05-15T17:20:30.353Z,3.55
2023-05-15T17:25:35.478Z,3.80
2023-05-15T17:30:43.022Z,4.03
2023-05-15T17:35:46.645Z,3.60
2023-05-15T17:40:54.203Z,3.42
2023-05-15T17:45:59.358Z,3.45
2023-05-15T17:51:04.876Z,3.67
2023-05-15T17:56:09.849Z,3.78
2023-05-15T18:01:14.813Z,3.22
2023-05-15T18:06:18.638Z,2.97
2023-05-15T18:11:24.016Z,2.83
2023-05-15T18:16:27.553Z,3.42
2023-05-15T18:21:31.045Z,2.50
2023-05-15T18:26:35.903Z,2.88
2023-05-15T18:31:40.344Z,3.35
2023-05-15T18:36:43.769Z,3.55
2023-05-15T18:41:49.524Z,2.97
2023-05-15T18:46:56.296Z,3.30
2023-05-15T18:52:01.117Z,2.90
2023-05-15T18:57:06.335Z,3.08
2023-05-15T19:02:15.360Z,3.00
2023-05-15T19:07:21.480Z,3.65
2023-05-15T19:12:27.369Z,2.70
2023-05-15T19:17:32.613Z,2.78
2023-05-15T19:22:36.029Z,2.85
2023-05-15T19:27:41.458Z,3.47
2023-05-15T19:32:47.229Z,3.40
2023-05-15T19:37:50.719Z,4.03
2023-05-15T19:42:57.384Z,3.20
2023-05-15T19:48:02.321Z,3.08
2023-05-15T19:53:07.271Z,3.00
2023-05-15T19:58:12.024Z,3.08
2023-05-15T20:03:19.567Z,3.20
2023-05-15T20:08:28.319Z,3.10
2023-05-15T20:13:33.114Z,3.88
2023-05-15T20:18:36.661Z,4.32
2023-05-15T20:23:40.260Z,4.05
2023-05-15T20:28:46.118Z,3.90
2023-05-15T20:33:49.518Z,3.53
2023-05-15T20:38:55.873Z,3.45
2023-05-15T20:44:02.198Z,3.55
2023-05-15T20:49:07.013Z,3.50
2023-05-15T20:54:10.381Z,3.80
2023-05-15T20:59:15.146Z,4.50
2023-05-15T21:04:18.848Z,3.63
2023-05-15T21:09:22.319Z,4.40
2023-05-15T21:14:27.203Z,4.60
2023-05-15T21:19:31.979Z,3.83
2023-05-15T21:24:35.606Z,4.68
2023-05-15T21:29:42.380Z,4.07
2023-05-15T21:34:47.793Z,4.63
2023-05-15T21:39:52.276Z,3.90
2023-05-15T21:44:57.335Z,4.32
2023-05-15T21:50:00.763Z,4.10
2023-05-15T21:55:05.026Z,3.65
2023-05-15T22:00:13.640Z,3.67
2023-05-15T22:05:18.750Z,4.25
2023-05-15T22:10:22.674Z,4.10
2023-05-15T22:15:27.584Z,3.35
2023-05-15T22:20:32.098Z,3.63
2023-05-15T22:25:36.179Z,3.83
2023-05-15T22:30:41.950Z,4.18
2023-05-15T22:35:47.230Z,4.25
2023-05-15T22:40:52.973Z,4.05
2023-05-15T22:45:58.933Z,3.67
2023-05-15T22:51:03.381Z,4.22
2023-05-15T22:56:07.426Z,4.80
2023-05-15T23:01:12.152Z,4.45
2023-05-15T23:06:18.248Z,4.30
2023-05-15T23:11:23.167Z,3.15
2023-05-15T23:16:28.455Z,3.85
2023-05-15T23:21:32.472Z,4.15
2023-05-15T23:26:35.983Z,3.92
2023-05-15T23:31:40.938Z,4.22
2023-05-15T23:36:44.443Z,4.13
2023-05-15T23:41:47.792Z,3.95
2023-05-15T23:46:52.656Z,3.35
2023-05-15T23:51:56.043Z,4.60
2023-05-15T23:56:59.536Z,4.18
